createdAt,value
2017-04-01T00:00:29.631Z,0
2017-04-01T00:01:39.325Z,0
2017-04-01T00:02:48.825Z,0
2017-04-01T00:03:58.145Z,0
2017-04-01T00:05:07.668Z,0
2017-04-01T00:06:16.700Z,0
2017-04-01T00:07:26.498Z,0
2017-04-01T00:08:36.716Z,0
2017-04-01T00:09:46.236Z,0
2017-04-01T00:10:56.560Z,0
2017-04-01T00:12:07.680Z,0
2017-04-01T00:13:16.981Z,0
2017-04-01T00:14:26.989Z,0
2017-04-01T00:15:36.686Z,0
2017-04-01T00:16:47.542Z,0
2017-04-01T00:17:56.517Z,0
2017-04-01T00:19:05.810Z,0
2017-04-01T00:20:15.098Z,0
2017-04-01T00:21:24.063Z,0
2017-04-01T00:22:33.808Z,0
2017-04-01T00:23:43.178Z,0
2017-04-01T00:24:52.846Z,0
2017-04-01T00:26:01.956Z,0
2017-04-01T00:27:12.162Z,0
2017-04-01T00:28:22.144Z,0
2017-04-01T00:29:31.260Z,0
2017-04-01T00:30:41.533Z,0
2017-04-01T00:31:51.189Z,0
2017-04-01T00:33:00.201Z,0
2017-04-01T00:34:09.282Z,0
2017-04-01T00:35:18.687Z,0
2017-04-01T00:36:28.186Z,0
2017-04-01T00:37:37.510Z,0
2017-04-01T00:38:46.479Z,0
2017-04-01T00:39:56.329Z,0
2017-04-01T00:41:05.286Z,0
2017-04-01T00:42:15.525Z,0
2017-04-01T00:43:25.213Z,0
2017-04-01T00:44:35.328Z,0
2017-04-01T00:45:45.603Z,0
2017-04-01T00:46:54.978Z,0
2017-04-01T00:48:04.394Z,0
2017-04-01T00:49:13.915Z,0
2017-04-01T00:50:22.876Z,0
2017-04-01T00:51:32.878Z,0
2017-04-01T00:52:42.617Z,0
2017-04-01T00:53:51.828Z,0
2017-04-01T00:55:01.807Z,0
2017-04-01T00:56:10.758Z,0
2017-04-01T00:57:20.646Z,0
2017-04-01T00:58:29.602Z,0
2017-04-01T00:59:39.443Z,0
2017-04-01T01:00:48.446Z,0
2017-04-01T01:01:58.362Z,0
2017-04-01T01:03:07.319Z,0
2017-04-01T01:04:17.194Z,0
2017-04-01T01:05:27.137Z,0
2017-04-01T01:06:36.474Z,0
2017-04-01T01:07:45.815Z,0
2017-04-01T01:08:55.963Z,0
2017-04-01T01:10:05.291Z,0
2017-04-01T01:11:15.345Z,0
2017-04-01T01:12:24.390Z,0
2017-04-01T01:13:34.256Z,0
2017-04-01T01:14:43.212Z,0
2017-04-01T01:15:52.174Z,0
2017-04-01T01:17:01.377Z,0
2017-04-01T01:18:10.350Z,0
2017-04-01T01:19:19.630Z,0
2017-04-01T01:20:28.927Z,0
2017-04-01T01:21:37.886Z,0
2017-04-01T01:22:47.095Z,0
2017-04-01T01:23:56.052Z,0
2017-04-01T01:25:05.008Z,0
2017-04-01T01:26:13.967Z,0
2017-04-01T01:27:23.013Z,0
2017-04-01T01:28:32.223Z,0
2017-04-01T01:29:41.177Z,0
2017-04-01T01:30:50.134Z,0
2017-04-01T01:31:59.098Z,0
2017-04-01T01:33:08.058Z,0
2017-04-01T01:34:17.265Z,0
2017-04-01T01:35:26.558Z,0
2017-04-01T01:36:35.524Z,0
2017-04-01T01:37:44.572Z,0
2017-04-01T01:38:53.531Z,0
2017-04-01T01:40:02.778Z,0
2017-04-01T01:41:11.738Z,0
2017-04-01T01:42:20.702Z,0
2017-04-01T01:43:29.657Z,0
2017-04-01T01:44:38.623Z,0
2017-04-01T01:45:47.833Z,0
2017-04-01T01:46:56.907Z,0
2017-04-01T01:48:05.863Z,0
2017-04-01T01:49:14.823Z,0
2017-04-01T01:50:23.780Z,0
2017-04-01T01:51:33.322Z,0
2017-04-01T01:52:42.284Z,0
2017-04-01T01:53:51.327Z,0
2017-04-01T01:55:00.290Z,0
2017-04-01T01:56:09.250Z,0
2017-04-01T01:57:19.012Z,0
2017-04-01T01:58:27.969Z,0
2017-04-01T01:59:36.927Z,0
2017-04-01T02:00:45.889Z,0
2017-04-01T02:01:54.853Z,0
2017-04-01T02:03:04.073Z,0
2017-04-01T02:04:13.032Z,0
2017-04-01T02:05:21.990Z,0
2017-04-01T02:06:30.944Z,0
2017-04-01T02:07:39.903Z,0
2017-04-01T02:08:49.108Z,0
2017-04-01T02:09:58.069Z,0
2017-04-01T02:11:07.028Z,0
2017-04-01T02:12:15.994Z,0
2017-04-01T02:13:24.952Z,0
2017-04-01T02:14:34.251Z,0
2017-04-01T02:15:43.211Z,0
2017-04-01T02:16:52.258Z,0
2017-04-01T02:18:01.220Z,0
2017-04-01T02:19:10.270Z,0
2017-04-01T02:20:19.529Z,0
2017-04-01T02:21:28.822Z,0
2017-04-01T02:22:37.777Z,0
2017-04-01T02:23:46.735Z,0
2017-04-01T02:24:55.781Z,0
2017-04-01T02:26:04.992Z,0
2017-04-01T02:27:13.949Z,0
2017-04-01T02:28:22.919Z,0
2017-04-01T02:29:31.874Z,0
2017-04-01T02:30:40.837Z,0
2017-04-01T02:31:50.097Z,0
2017-04-01T02:32:59.055Z,0
2017-04-01T02:34:08.014Z,0
2017-04-01T02:35:16.976Z,0
2017-04-01T02:36:25.936Z,0
2017-04-01T02:37:35.144Z,0
2017-04-01T02:38:44.107Z,0
2017-04-01T02:39:53.064Z,0
2017-04-01T02:41:02.018Z,0
2017-04-01T02:42:10.978Z,0
2017-04-01T02:43:20.191Z,0
2017-04-01T02:44:29.233Z,0
2017-04-01T02:45:38.198Z,0
2017-04-01T02:46:47.176Z,0
2017-04-01T02:47:56.136Z,0
2017-04-01T02:49:05.395Z,0
2017-04-01T02:50:14.446Z,0
2017-04-01T02:51:23.407Z,0
2017-04-01T02:52:32.364Z,0
2017-04-01T02:53:41.326Z,0
2017-04-01T02:54:50.534Z,0
2017-04-01T02:55:59.489Z,0
2017-04-01T02:57:08.446Z,0
2017-04-01T02:58:17.407Z,0
2017-04-01T02:59:26.364Z,0
2017-04-01T03:00:35.897Z,0
2017-04-01T03:01:44.864Z,0
2017-04-01T03:02:53.816Z,0
2017-04-01T03:04:02.774Z,0
2017-04-01T03:05:11.746Z,0
2017-04-01T03:06:20.954Z,0
2017-04-01T03:07:29.917Z,0
2017-04-01T03:08:38.877Z,0
2017-04-01T03:09:47.834Z,0
2017-04-01T03:10:56.792Z,0
2017-04-01T03:12:06.000Z,0
2017-04-01T03:13:14.956Z,0
2017-04-01T03:14:23.916Z,0
2017-04-01T03:15:32.875Z,0
2017-04-01T03:16:41.832Z,0
2017-04-01T03:17:51.039Z,0
2017-04-01T03:19:00.083Z,0
2017-04-01T03:20:09.048Z,0
2017-04-01T03:21:18.002Z,0
2017-04-01T03:22:26.962Z,0
2017-04-01T03:23:36.171Z,0
2017-04-01T03:24:45.129Z,0
2017-04-01T03:25:54.117Z,0
2017-04-01T03:27:03.077Z,0
2017-04-01T03:28:12.036Z,0
2017-04-01T03:29:21.244Z,0
2017-04-01T03:30:30.198Z,0
2017-04-01T03:31:39.186Z,0
2017-04-01T03:32:48.141Z,0
2017-04-01T03:33:57.099Z,0
2017-04-01T03:35:06.309Z,0
2017-04-01T03:36:15.264Z,0
2017-04-01T03:37:24.223Z,0
2017-04-01T03:38:33.508Z,0
2017-04-01T03:39:42.466Z,0
2017-04-01T03:40:51.678Z,0
2017-04-01T03:42:01.042Z,0
2017-04-01T03:43:10.464Z,0
2017-04-01T03:44:19.465Z,0
2017-04-01T03:45:28.752Z,0
2017-04-01T03:46:37.964Z,0
2017-04-01T03:47:46.924Z,0
2017-04-01T03:48:55.888Z,0
2017-04-01T03:50:04.934Z,0
2017-04-01T03:51:13.893Z,0
2017-04-01T03:52:23.159Z,0
2017-04-01T03:53:32.118Z,0
2017-04-01T03:54:41.076Z,0
2017-04-01T03:55:50.038Z,0
2017-04-01T03:56:58.995Z,0
2017-04-01T03:58:08.002Z,0
2017-04-01T03:59:16.963Z,0
2017-04-01T04:00:25.917Z,0
2017-04-01T04:01:34.877Z,0
2017-04-01T04:02:43.830Z,0
2017-04-01T04:03:52.839Z,0
2017-04-01T04:05:01.795Z,0
2017-04-01T04:06:10.752Z,0
2017-04-01T04:07:19.715Z,0
2017-04-01T04:08:28.673Z,0
2017-04-01T04:09:37.632Z,0
2017-04-01T04:10:46.591Z,0
2017-04-01T04:11:55.550Z,0
2017-04-01T04:13:04.545Z,0
2017-04-01T04:14:13.502Z,0
2017-04-01T04:15:22.460Z,0
2017-04-01T04:16:31.421Z,0
2017-04-01T04:17:40.376Z,0
2017-04-01T04:18:49.330Z,0
2017-04-01T04:19:58.293Z,0
2017-04-01T04:21:07.305Z,0
2017-04-01T04:22:16.265Z,0
2017-04-01T04:23:25.306Z,0
2017-04-01T04:24:34.271Z,0
2017-04-01T04:25:43.233Z,0
2017-04-01T04:26:52.188Z,0
2017-04-01T04:28:01.142Z,0
2017-04-01T04:29:10.095Z,0
2017-04-01T04:30:19.051Z,0
2017-04-01T04:31:28.006Z,0
2017-04-01T04:32:37.052Z,0
2017-04-01T04:33:46.011Z,0
2017-04-01T04:34:55.010Z,0
2017-04-01T04:36:04.057Z,0
2017-04-01T04:37:13.023Z,0
2017-04-01T04:38:22.027Z,0
2017-04-01T04:39:30.982Z,0
2017-04-01T04:40:39.950Z,0
2017-04-01T04:41:48.923Z,0
2017-04-01T04:42:57.876Z,0
2017-04-01T04:44:06.882Z,0
2017-04-01T04:45:15.847Z,0
2017-04-01T04:46:24.808Z,0
2017-04-01T04:47:33.855Z,5
2017-04-01T04:48:42.816Z,5
2017-04-01T04:49:51.813Z,5
2017-04-01T04:51:00.767Z,5
2017-04-01T04:52:09.725Z,5
2017-04-01T04:53:18.682Z,5
2017-04-01T04:54:27.638Z,5
2017-04-01T04:55:36.649Z,10
2017-04-01T04:56:45.604Z,10
2017-04-01T04:57:54.569Z,10
2017-04-01T04:59:03.529Z,10
2017-04-01T05:00:12.816Z,10
2017-04-01T05:01:21.785Z,10
2017-04-01T05:02:30.738Z,10
2017-04-01T05:03:39.694Z,15
2017-04-01T05:04:48.649Z,15
2017-04-01T05:05:57.933Z,15
2017-04-01T05:07:06.890Z,15
2017-04-01T05:08:15.843Z,15
2017-04-01T05:09:24.794Z,15
2017-04-01T05:10:33.750Z,15
2017-04-01T05:11:42.718Z,15
2017-04-01T05:12:51.721Z,15
2017-04-01T05:14:00.681Z,20
2017-04-01T05:15:09.635Z,20
2017-04-01T05:16:18.592Z,20
2017-04-01T05:17:27.546Z,20
2017-04-01T05:18:36.563Z,20
2017-04-01T05:19:45.521Z,20
2017-04-01T05:20:54.482Z,20
2017-04-01T05:22:03.573Z,25
2017-04-01T05:23:12.533Z,25
2017-04-01T05:24:21.488Z,25
2017-04-01T05:25:30.452Z,25
2017-04-01T05:26:39.410Z,25
2017-04-01T05:27:48.368Z,25
2017-04-01T05:28:57.328Z,30
2017-04-01T05:30:06.288Z,30
2017-04-01T05:31:15.249Z,30
2017-04-01T05:32:24.366Z,30
2017-04-01T05:33:34.229Z,30
2017-04-01T05:34:43.288Z,30
2017-04-01T05:35:52.244Z,30
2017-04-01T05:37:01.199Z,30
2017-04-01T05:38:10.159Z,35
2017-04-01T05:39:19.116Z,35
2017-04-01T05:40:28.071Z,35
2017-04-01T05:41:37.206Z,35
2017-04-01T05:42:46.264Z,35
2017-04-01T05:43:55.220Z,35
2017-04-01T05:45:04.180Z,40
2017-04-01T05:46:13.173Z,40
2017-04-01T05:47:22.221Z,35
2017-04-01T05:48:31.181Z,40
2017-04-01T05:49:40.141Z,40
2017-04-01T05:50:49.095Z,40
2017-04-01T05:51:58.053Z,40
2017-04-01T05:53:07.010Z,40
2017-04-01T05:54:15.965Z,40
2017-04-01T05:55:24.925Z,40
2017-04-01T05:56:33.890Z,40
2017-04-01T05:57:42.860Z,45
2017-04-01T05:58:51.818Z,45
2017-04-01T06:00:00.782Z,45
2017-04-01T06:01:09.920Z,45
2017-04-01T06:02:18.917Z,45
2017-04-01T06:03:27.879Z,45
2017-04-01T06:04:36.834Z,45
2017-04-01T06:05:45.794Z,45
2017-04-01T06:06:54.842Z,45
2017-04-01T06:08:03.799Z,45
2017-04-01T06:09:12.841Z,45
2017-04-01T06:10:21.860Z,45
2017-04-01T06:11:30.824Z,50
2017-04-01T06:12:42.770Z,50
2017-04-01T06:13:52.876Z,50
2017-04-01T06:15:01.836Z,50
2017-04-01T06:16:10.792Z,50
2017-04-01T06:17:19.840Z,50
2017-04-01T06:18:28.802Z,50
2017-04-01T06:19:37.754Z,50
2017-04-01T06:20:46.706Z,50
2017-04-01T06:21:55.719Z,50
2017-04-01T06:23:04.677Z,50
2017-04-01T06:24:15.008Z,50
2017-04-01T06:25:23.963Z,50
2017-04-01T06:26:32.920Z,50
2017-04-01T06:27:41.926Z,50
2017-04-01T06:28:50.882Z,50
2017-04-01T06:29:59.840Z,50
2017-04-01T06:31:08.805Z,50
2017-04-01T06:32:17.765Z,50
2017-04-01T06:33:26.723Z,50
2017-04-01T06:34:35.829Z,50
2017-04-01T06:35:44.913Z,50
2017-04-01T06:36:53.893Z,60
2017-04-01T06:38:02.915Z,55
2017-04-01T06:39:12.054Z,60
2017-04-01T06:40:21.324Z,60
2017-04-01T06:41:30.461Z,55
2017-04-01T06:42:39.502Z,60
2017-04-01T06:43:48.656Z,65
2017-04-01T06:44:57.665Z,65
2017-04-01T06:46:06.638Z,65
2017-04-01T06:47:15.600Z,65
2017-04-01T06:48:25.391Z,70
2017-04-01T06:49:34.468Z,70
2017-04-01T06:50:43.443Z,70
2017-04-01T06:51:52.744Z,75
2017-04-01T06:53:01.705Z,75
2017-04-01T06:54:10.814Z,75
2017-04-01T06:55:19.897Z,75
2017-04-01T06:56:28.993Z,75
2017-04-01T06:57:37.978Z,80
2017-04-01T06:58:46.939Z,75
2017-04-01T06:59:55.897Z,75
2017-04-01T07:01:04.963Z,75
2017-04-01T07:02:13.945Z,75
2017-04-01T07:03:22.929Z,80
2017-04-01T07:04:31.911Z,85
2017-04-01T07:05:40.927Z,85
2017-04-01T07:06:49.917Z,90
2017-04-01T07:07:58.957Z,90
2017-04-01T07:09:07.942Z,90
2017-04-01T07:10:16.936Z,90
2017-04-01T07:11:25.920Z,95
2017-04-01T07:12:34.903Z,95
2017-04-01T07:13:43.937Z,95
2017-04-01T07:14:52.917Z,95
2017-04-01T07:16:01.899Z,100
2017-04-01T07:17:10.879Z,95
2017-04-01T07:18:19.862Z,100
2017-04-01T07:19:28.898Z,95
2017-04-01T07:20:37.881Z,95
2017-04-01T07:21:46.867Z,95
2017-04-01T07:22:55.943Z,95
2017-04-01T07:24:04.933Z,95
2017-04-01T07:25:13.967Z,95
2017-04-01T07:26:23.307Z,95
2017-04-01T07:27:32.289Z,95
2017-04-01T07:28:41.273Z,95
2017-04-01T07:29:50.258Z,95
2017-04-01T07:30:59.285Z,95
2017-04-01T07:32:08.270Z,95
2017-04-01T07:33:17.252Z,95
2017-04-01T07:34:26.564Z,95
2017-04-01T07:35:35.542Z,95
2017-04-01T07:36:44.526Z,95
2017-04-01T07:37:53.598Z,90
2017-04-01T07:39:02.573Z,95
2017-04-01T07:40:11.559Z,95
2017-04-01T07:41:20.540Z,95
2017-04-01T07:42:29.568Z,95
2017-04-01T07:43:38.550Z,100
2017-04-01T07:44:47.536Z,100
2017-04-01T07:45:56.517Z,100
2017-04-01T07:47:05.501Z,100
2017-04-01T07:48:14.490Z,105
2017-04-01T07:49:23.471Z,105
2017-04-01T07:50:32.548Z,105
2017-04-01T07:51:41.531Z,105
2017-04-01T07:52:50.516Z,105
2017-04-01T07:53:59.547Z,105
2017-04-01T07:55:08.529Z,105
2017-04-01T07:56:17.600Z,105
2017-04-01T07:57:26.580Z,100
2017-04-01T07:58:35.566Z,100
2017-04-01T07:59:44.799Z,100
2017-04-01T08:00:53.780Z,100
2017-04-01T08:02:02.765Z,100
2017-04-01T08:03:11.750Z,100
2017-04-01T08:04:20.735Z,100
2017-04-01T08:05:29.965Z,100
2017-04-01T08:06:38.963Z,100
2017-04-01T08:07:47.953Z,100
2017-04-01T08:08:56.930Z,100
2017-04-01T08:10:05.914Z,100
2017-04-01T08:11:15.151Z,100
2017-04-01T08:12:24.134Z,100
2017-04-01T08:13:33.119Z,100
2017-04-01T08:14:42.109Z,100
2017-04-01T08:15:51.111Z,100
2017-04-01T08:17:00.342Z,100
2017-04-01T08:18:09.338Z,105
2017-04-01T08:19:18.323Z,105
2017-04-01T08:20:27.307Z,105
2017-04-01T08:21:36.294Z,110
2017-04-01T08:22:45.520Z,110
2017-04-01T08:23:54.497Z,110
2017-04-01T08:25:03.485Z,110
2017-04-01T08:26:12.464Z,110
2017-04-01T08:27:21.449Z,110
2017-04-01T08:28:30.680Z,110
2017-04-01T08:29:39.661Z,110
2017-04-01T08:30:48.649Z,115
2017-04-01T08:31:58.219Z,115
2017-04-01T08:33:07.203Z,110
2017-04-01T08:34:16.439Z,110
2017-04-01T08:35:25.427Z,110
2017-04-01T08:36:34.408Z,110
2017-04-01T08:37:43.388Z,115
2017-04-01T08:38:52.372Z,115
2017-04-01T08:40:01.613Z,120
2017-04-01T08:41:10.605Z,120
2017-04-01T08:42:19.591Z,120
2017-04-01T08:43:28.578Z,120
2017-04-01T08:44:37.564Z,115
2017-04-01T08:45:46.794Z,115
2017-04-01T08:46:55.779Z,115
2017-04-01T08:48:04.761Z,115
2017-04-01T08:49:13.747Z,105
2017-04-01T08:50:22.737Z,110
2017-04-01T08:51:31.981Z,110
2017-04-01T08:52:40.966Z,110
2017-04-01T08:53:49.953Z,110
2017-04-01T08:54:58.945Z,110
2017-04-01T08:56:07.936Z,115
2017-04-01T08:57:17.167Z,115
2017-04-01T08:58:26.165Z,120
2017-04-01T08:59:35.148Z,120
2017-04-01T09:00:44.135Z,120
2017-04-01T09:01:53.120Z,120
2017-04-01T09:03:02.352Z,120
2017-04-01T09:04:11.342Z,115
2017-04-01T09:05:20.329Z,120
2017-04-01T09:06:29.317Z,120
2017-04-01T09:07:38.314Z,115
2017-04-01T09:08:47.554Z,115
2017-04-01T09:09:56.875Z,120
2017-04-01T09:11:05.920Z,120
2017-04-01T09:12:14.908Z,120
2017-04-01T09:13:23.888Z,120
2017-04-01T09:14:33.119Z,120
2017-04-01T09:15:42.107Z,120
2017-04-01T09:16:51.093Z,115
2017-04-01T09:18:00.071Z,115
2017-04-01T09:19:09.793Z,115
2017-04-01T09:20:19.292Z,115
2017-04-01T09:21:47.468Z,105
2017-04-01T09:22:56.457Z,105
2017-04-01T09:24:05.443Z,105
2017-04-01T09:25:14.682Z,105
2017-04-01T09:26:23.661Z,105
2017-04-01T09:27:32.727Z,100
2017-04-01T09:28:41.709Z,100
2017-04-01T09:29:50.693Z,100
2017-04-01T09:30:59.981Z,105
2017-04-01T09:32:08.963Z,100
2017-04-01T09:33:17.950Z,105
2017-04-01T09:34:26.938Z,105
2017-04-01T09:35:35.923Z,105
2017-04-01T09:36:45.211Z,105
2017-04-01T09:37:54.187Z,105
2017-04-01T09:39:03.157Z,105
2017-04-01T09:40:12.147Z,105
2017-04-01T09:41:21.120Z,110
2017-04-01T09:42:30.342Z,110
2017-04-01T09:43:39.895Z,110
2017-04-01T09:44:48.881Z,110
2017-04-01T09:45:57.842Z,115
2017-04-01T09:47:07.126Z,115
2017-04-01T09:48:16.394Z,115
2017-04-01T09:49:25.352Z,115
2017-04-01T09:50:34.315Z,115
2017-04-01T09:51:43.284Z,115
2017-04-01T09:52:52.265Z,115
2017-04-01T09:54:01.529Z,115
2017-04-01T09:55:10.522Z,115
2017-04-01T09:56:19.482Z,115
2017-04-01T09:57:28.444Z,115
2017-04-01T09:58:37.409Z,120
2017-04-01T09:59:46.670Z,120
2017-04-01T10:00:55.728Z,120
2017-04-01T10:02:04.685Z,120
2017-04-01T10:03:13.731Z,120
2017-04-01T10:04:22.693Z,120
2017-04-01T10:05:31.955Z,120
2017-04-01T10:06:40.918Z,120
2017-04-01T10:07:49.878Z,120
2017-04-01T10:08:58.840Z,125
2017-04-01T10:10:07.802Z,125
2017-04-01T10:11:17.341Z,125
2017-04-01T10:12:26.302Z,125
2017-04-01T10:13:35.263Z,130
2017-04-01T10:14:44.222Z,125
2017-04-01T10:15:53.180Z,125
2017-04-01T10:17:02.444Z,120
2017-04-01T10:18:11.406Z,120
2017-04-01T10:19:20.366Z,120
2017-04-01T10:20:29.334Z,115
2017-04-01T10:21:38.359Z,115
2017-04-01T10:22:47.640Z,120
2017-04-01T10:23:56.601Z,115
2017-04-01T10:25:05.561Z,115
2017-04-01T10:26:14.531Z,115
2017-04-01T10:27:23.504Z,115
2017-04-01T10:28:33.100Z,115
2017-04-01T10:29:42.382Z,115
2017-04-01T10:30:51.346Z,125
2017-04-01T10:32:00.320Z,125
2017-04-01T10:33:09.376Z,125
2017-04-01T10:34:18.635Z,125
2017-04-01T10:35:27.599Z,125
2017-04-01T10:36:36.565Z,125
2017-04-01T10:37:45.534Z,120
2017-04-01T10:38:54.500Z,120
2017-04-01T10:40:03.852Z,120
2017-04-01T10:41:12.824Z,115
2017-04-01T10:42:21.822Z,115
2017-04-01T10:43:31.065Z,115
2017-04-01T10:44:40.196Z,120
2017-04-01T10:45:49.459Z,120
2017-04-01T10:46:58.508Z,125
2017-04-01T10:48:07.558Z,125
2017-04-01T10:49:16.526Z,125
2017-04-01T10:50:25.488Z,125
2017-04-01T10:51:34.749Z,120
2017-04-01T10:52:43.710Z,120
2017-04-01T10:53:52.671Z,115
2017-04-01T10:55:01.632Z,115
2017-04-01T10:56:10.593Z,115
2017-04-01T10:57:19.864Z,115
2017-04-01T10:58:28.830Z,115
2017-04-01T10:59:37.796Z,115
2017-04-01T11:00:46.769Z,115
2017-04-01T11:01:55.766Z,115
2017-04-01T11:03:05.073Z,115
2017-04-01T11:04:14.036Z,115
2017-04-01T11:05:23.014Z,115
2017-04-01T11:06:31.980Z,115
2017-04-01T11:07:40.943Z,115
2017-04-01T11:08:50.210Z,115
2017-04-01T11:09:59.168Z,115
2017-04-01T11:11:08.140Z,115
2017-04-01T11:12:17.103Z,115
2017-04-01T11:13:26.077Z,115
2017-04-01T11:14:36.797Z,115
2017-04-01T11:15:46.720Z,115
2017-04-01T11:17:04.378Z,115
2017-04-01T11:18:19.088Z,115
2017-04-01T11:19:34.532Z,110
2017-04-01T11:20:45.534Z,110
2017-04-01T11:21:55.932Z,110
2017-04-01T11:23:06.338Z,110
2017-04-01T11:24:16.740Z,110
2017-04-01T11:25:27.135Z,110
2017-04-01T11:26:37.617Z,110
2017-04-01T11:27:47.627Z,110
2017-04-01T11:28:57.149Z,110
2017-04-01T11:30:11.062Z,110
2017-04-01T11:31:23.458Z,110
2017-04-01T11:32:37.078Z,110
2017-04-01T11:33:49.378Z,110
2017-04-01T11:34:59.387Z,105
2017-04-01T11:36:09.665Z,110
2017-04-01T11:37:20.189Z,110
2017-04-01T11:38:30.593Z,110
2017-04-01T11:39:41.232Z,110
2017-04-01T11:40:51.642Z,110
2017-04-01T11:42:02.037Z,110
2017-04-01T11:43:11.595Z,110
2017-04-01T11:44:21.425Z,110
2017-04-01T11:45:30.388Z,110
2017-04-01T11:46:39.412Z,110
2017-04-01T11:47:48.533Z,110
2017-04-01T11:48:57.863Z,110
2017-04-01T11:50:06.969Z,110
2017-04-01T11:51:15.939Z,110
2017-04-01T11:52:24.909Z,110
2017-04-01T11:53:33.871Z,110
2017-04-01T11:54:43.459Z,110
2017-04-01T11:55:52.543Z,110
2017-04-01T11:57:01.505Z,105
2017-04-01T11:58:10.568Z,105
2017-04-01T11:59:19.649Z,105
2017-04-01T12:00:29.081Z,105
2017-04-01T12:01:38.143Z,105
2017-04-01T12:02:47.122Z,105
2017-04-01T12:03:56.297Z,100
2017-04-01T12:05:05.412Z,100
2017-04-01T12:06:14.818Z,100
2017-04-01T12:07:23.959Z,100
2017-04-01T12:08:32.940Z,105
2017-04-01T12:09:41.997Z,105
2017-04-01T12:10:51.221Z,110
2017-04-01T12:12:01.056Z,110
2017-04-01T12:13:10.053Z,110
2017-04-01T12:14:20.088Z,110
2017-04-01T12:15:29.819Z,110
2017-04-01T12:16:38.931Z,110
2017-04-01T12:17:48.451Z,110
2017-04-01T12:18:57.943Z,110
2017-04-01T12:20:07.094Z,110
2017-04-01T12:21:16.975Z,110
2017-04-01T12:22:28.411Z,105
2017-04-01T12:23:42.000Z,105
2017-04-01T12:24:51.904Z,105
2017-04-01T12:26:00.872Z,100
2017-04-01T12:27:09.835Z,100
2017-04-01T12:28:18.801Z,100
2017-04-01T12:29:28.013Z,100
2017-04-01T12:30:37.068Z,105
2017-04-01T12:31:46.033Z,100
2017-04-01T12:32:55.001Z,100
2017-04-01T12:34:03.963Z,100
2017-04-01T12:35:13.326Z,100
2017-04-01T12:36:22.292Z,100
2017-04-01T12:37:31.259Z,95
2017-04-01T12:38:40.225Z,95
2017-04-01T12:39:49.188Z,90
2017-04-01T12:40:58.454Z,95
2017-04-01T12:42:07.419Z,90
2017-04-01T12:43:16.587Z,85
2017-04-01T12:44:25.633Z,85
2017-04-01T12:45:34.654Z,90
2017-04-01T12:46:43.940Z,95
2017-04-01T12:47:53.009Z,100
2017-04-01T12:49:02.021Z,100
2017-04-01T12:50:11.054Z,100
2017-04-01T12:51:20.051Z,105
2017-04-01T12:52:29.347Z,105
2017-04-01T12:53:38.439Z,105
2017-04-01T12:54:47.439Z,105
2017-04-01T12:55:56.604Z,105
2017-04-01T12:57:05.607Z,100
2017-04-01T12:58:14.815Z,100
2017-04-01T12:59:24.113Z,90
2017-04-01T13:00:33.194Z,90
2017-04-01T13:01:42.501Z,95
2017-04-01T13:02:51.819Z,95
2017-04-01T13:04:01.148Z,95
2017-04-01T13:05:10.324Z,95
2017-04-01T13:06:19.519Z,95
2017-04-01T13:07:28.853Z,95
2017-04-01T13:08:38.025Z,95
2017-04-01T13:09:47.485Z,95
2017-04-01T13:10:56.464Z,95
2017-04-01T13:12:05.717Z,100
2017-04-01T13:13:15.307Z,100
2017-04-01T13:14:24.934Z,100
2017-04-01T13:15:35.250Z,100
2017-04-01T13:16:47.062Z,100
2017-04-01T13:17:56.032Z,100
2017-04-01T13:19:05.539Z,95
2017-04-01T13:20:14.762Z,95
2017-04-01T13:21:24.050Z,95
2017-04-01T13:22:33.351Z,95
2017-04-01T13:23:42.313Z,90
2017-04-01T13:24:51.277Z,90
2017-04-01T13:26:00.236Z,90
2017-04-01T13:27:09.504Z,95
2017-04-01T13:28:18.470Z,90
2017-04-01T13:29:27.434Z,95
2017-04-01T13:30:36.488Z,90
2017-04-01T13:31:45.460Z,80
2017-04-01T13:32:54.723Z,90
2017-04-01T13:34:03.687Z,100
2017-04-01T13:35:12.671Z,100
2017-04-01T13:36:21.633Z,100
2017-04-01T13:37:31.253Z,105
2017-04-01T13:38:40.516Z,105
2017-04-01T13:39:49.475Z,105
2017-04-01T13:40:58.459Z,105
2017-04-01T13:42:07.422Z,100
2017-04-01T13:43:16.390Z,100
2017-04-01T13:44:25.656Z,100
2017-04-01T13:45:34.650Z,100
2017-04-01T13:46:43.668Z,100
2017-04-01T13:47:52.633Z,100
2017-04-01T13:49:01.599Z,100
2017-04-01T13:50:10.865Z,95
2017-04-01T13:51:19.868Z,90
2017-04-01T13:52:28.832Z,85
2017-04-01T13:53:37.793Z,85
2017-04-01T13:54:46.755Z,85
2017-04-01T13:55:56.030Z,90
2017-04-01T13:57:05.002Z,95
2017-04-01T13:58:13.979Z,95
2017-04-01T13:59:22.946Z,90
2017-04-01T14:00:31.915Z,90
2017-04-01T14:01:41.208Z,95
2017-04-01T14:02:50.189Z,95
2017-04-01T14:03:59.155Z,95
2017-04-01T14:05:08.163Z,95
2017-04-01T14:06:17.148Z,95
2017-04-01T14:07:26.416Z,100
2017-04-01T14:08:35.379Z,100
2017-04-01T14:09:44.341Z,100
2017-04-01T14:10:53.305Z,100
2017-04-01T14:12:02.269Z,100
2017-04-01T14:13:11.483Z,95
2017-04-01T14:14:20.444Z,95
2017-04-01T14:15:29.412Z,85
2017-04-01T14:16:38.376Z,85
2017-04-01T14:17:47.355Z,85
2017-04-01T14:18:56.714Z,90
2017-04-01T14:20:05.681Z,90
2017-04-01T14:21:14.644Z,90
2017-04-01T14:22:23.636Z,90
2017-04-01T14:23:32.601Z,90
2017-04-01T14:24:41.865Z,95
2017-04-01T14:25:50.833Z,95
2017-04-01T14:26:59.801Z,95
2017-04-01T14:28:08.768Z,100
2017-04-01T14:29:17.730Z,100
2017-04-01T14:30:26.998Z,100
2017-04-01T14:31:35.978Z,95
2017-04-01T14:32:45.043Z,95
2017-04-01T14:33:54.002Z,100
2017-04-01T14:35:03.058Z,100
2017-04-01T14:36:12.356Z,100
2017-04-01T14:37:21.344Z,100
2017-04-01T14:38:30.312Z,95
2017-04-01T14:39:39.292Z,95
2017-04-01T14:40:48.255Z,90
2017-04-01T14:41:57.515Z,90
2017-04-01T14:43:06.505Z,90
2017-04-01T14:44:15.470Z,90
2017-04-01T14:45:24.526Z,90
2017-04-01T14:46:33.498Z,110
2017-04-01T14:47:42.767Z,100
2017-04-01T14:48:51.848Z,95
2017-04-01T14:50:00.854Z,95
2017-04-01T14:51:09.813Z,90
2017-04-01T14:52:18.773Z,90
2017-04-01T14:53:28.039Z,90
2017-04-01T14:54:37.110Z,90
2017-04-01T14:55:46.179Z,90
2017-04-01T14:56:55.146Z,85
2017-04-01T14:58:04.114Z,85
2017-04-01T14:59:13.381Z,85
2017-04-01T15:00:22.534Z,85
2017-04-01T15:01:31.495Z,80
2017-04-01T15:02:40.460Z,80
2017-04-01T15:03:49.421Z,80
2017-04-01T15:04:58.689Z,80
2017-04-01T15:06:07.759Z,75
2017-04-01T15:07:17.967Z,75
2017-04-01T15:08:26.928Z,75
2017-04-01T15:09:35.894Z,75
2017-04-01T15:10:45.107Z,75
2017-04-01T15:11:54.112Z,75
2017-04-01T15:13:03.081Z,75
2017-04-01T15:14:12.045Z,75
2017-04-01T15:15:21.012Z,70
2017-04-01T15:16:30.275Z,70
2017-04-01T15:17:39.326Z,70
2017-04-01T15:18:49.401Z,70
2017-04-01T15:19:58.368Z,65
2017-04-01T15:21:07.337Z,70
2017-04-01T15:22:16.575Z,65
2017-04-01T15:23:25.550Z,65
2017-04-01T15:24:34.518Z,65
2017-04-01T15:25:43.490Z,65
2017-04-01T15:26:52.463Z,60
2017-04-01T15:28:01.743Z,65
2017-04-01T15:29:10.709Z,65
2017-04-01T15:30:19.673Z,60
2017-04-01T15:31:28.641Z,60
2017-04-01T15:32:37.610Z,60
2017-04-01T15:33:46.878Z,60
2017-04-01T15:34:55.844Z,55
2017-04-01T15:36:04.823Z,55
2017-04-01T15:37:13.800Z,50
2017-04-01T15:38:22.855Z,50
2017-04-01T15:39:32.135Z,50
2017-04-01T15:40:41.259Z,50
2017-04-01T15:41:50.236Z,50
2017-04-01T15:42:59.218Z,50
2017-04-01T15:44:08.182Z,50
2017-04-01T15:45:17.486Z,45
2017-04-01T15:46:26.805Z,45
2017-04-01T15:47:36.388Z,45
2017-04-01T15:48:45.352Z,45
2017-04-01T15:49:54.553Z,40
2017-04-01T15:51:04.674Z,40
2017-04-01T15:52:13.652Z,40
2017-04-01T15:53:22.784Z,40
2017-04-01T15:54:31.903Z,40
2017-04-01T15:55:41.012Z,35
2017-04-01T15:56:50.380Z,35
2017-04-01T15:57:59.487Z,35
2017-04-01T15:59:08.731Z,40
2017-04-01T16:00:18.451Z,40
2017-04-01T16:01:27.517Z,35
2017-04-01T16:02:36.928Z,35
2017-04-01T16:03:46.587Z,35
2017-04-01T16:04:55.735Z,35
2017-04-01T16:06:05.153Z,35
2017-04-01T16:07:14.194Z,35
2017-04-01T16:08:23.559Z,35
2017-04-01T16:09:32.826Z,35
2017-04-01T16:10:42.132Z,35
2017-04-01T16:11:51.432Z,30
2017-04-01T16:13:00.531Z,30
2017-04-01T16:14:09.932Z,30
2017-04-01T16:15:19.262Z,30
2017-04-01T16:16:32.312Z,30
2017-04-01T16:17:41.890Z,30
2017-04-01T16:18:50.972Z,30
2017-04-01T16:20:00.246Z,30
2017-04-01T16:21:09.209Z,25
2017-04-01T16:22:18.336Z,25
2017-04-01T16:23:27.724Z,25
2017-04-01T16:24:36.690Z,25
2017-04-01T16:25:46.073Z,25